createdAt,value
2022-08-16T00:01:24.764Z,59.36
2022-08-16T00:03:54.208Z,59.56
2022-08-16T00:06:22.498Z,59.67
2022-08-16T00:08:50.146Z,59.89
2022-08-16T00:11:20.784Z,60.14
2022-08-16T00:13:53.699Z,60.23
2022-08-16T00:16:58.013Z,60.33
2022-08-16T00:19:15.401Z,60.49
2022-08-16T00:21:44.072Z,60.50
2022-08-16T00:24:12.757Z,60.60
2022-08-16T00:26:45.170Z,60.64
2022-08-16T00:29:16.485Z,60.78
2022-08-16T00:32:00.805Z,60.91
2022-08-16T00:34:44.431Z,60.93
2022-08-16T00:37:58.159Z,61.13
2022-08-16T00:40:34.164Z,61.14
2022-08-16T00:43:19.359Z,61.20
2022-08-16T00:46:33.801Z,61.20
2022-08-16T00:49:04.487Z,61.24
2022-08-16T00:51:31.730Z,61.29
2022-08-16T00:53:58.741Z,61.38
2022-08-16T00:56:56.843Z,61.41
2022-08-16T00:59:23.654Z,61.41
2022-08-16T01:01:52.019Z,61.47
2022-08-16T01:04:29.444Z,61.46
2022-08-16T01:07:02.597Z,61.50
2022-08-16T01:09:34.213Z,61.51
2022-08-16T01:12:04.257Z,61.52
2022-08-16T01:14:44.070Z,61.56
2022-08-16T01:17:16.153Z,61.57
2022-08-16T01:19:52.231Z,61.63
2022-08-16T01:22:57.341Z,61.69
2022-08-16T01:25:34.151Z,61.63
2022-08-16T01:28:08.178Z,61.54
2022-08-16T01:30:50.032Z,61.49
2022-08-16T01:33:20.064Z,61.43
2022-08-16T01:36:11.755Z,61.40
2022-08-16T01:38:51.304Z,61.36
2022-08-16T01:41:32.436Z,61.32
2022-08-16T01:44:10.153Z,61.13
2022-08-16T01:46:43.600Z,60.90
2022-08-16T01:49:22.943Z,60.63
2022-08-16T01:51:57.949Z,60.58
2022-08-16T01:54:33.789Z,60.50
2022-08-16T01:57:05.581Z,60.44
2022-08-16T01:59:35.997Z,60.42
2022-08-16T02:02:05.302Z,60.36
2022-08-16T02:04:54.691Z,60.25
2022-08-16T02:07:23.543Z,60.26
2022-08-16T02:09:57.419Z,60.26
2022-08-16T02:12:49.356Z,60.11
2022-08-16T02:15:25.539Z,60.06
2022-08-16T02:17:56.335Z,60.10
2022-08-16T02:20:26.290Z,60.25
2022-08-16T02:22:57.297Z,60.41
2022-08-16T02:25:25.243Z,60.52
2022-08-16T02:28:11.989Z,60.59
2022-08-16T02:30:50.075Z,60.57
2022-08-16T02:33:18.443Z,60.63
2022-08-16T02:35:49.691Z,60.50
2022-08-16T02:38:24.058Z,60.50
2022-08-16T02:40:51.768Z,60.53
2022-08-16T02:43:26.758Z,60.69
2022-08-16T02:45:57.091Z,60.94
2022-08-16T02:48:29.629Z,61.12
2022-08-16T02:51:10.253Z,61.27
2022-08-16T02:53:48.696Z,61.43
2022-08-16T02:56:18.366Z,61.60
2022-08-16T02:58:47.776Z,61.81
2022-08-16T03:01:24.905Z,61.89
2022-08-16T03:04:39.886Z,62.01
2022-08-16T03:06:56.781Z,62.20
2022-08-16T03:09:47.166Z,62.47
2022-08-16T03:12:18.575Z,62.79
2022-08-16T03:14:47.956Z,63.00
2022-08-16T03:17:16.860Z,63.15
2022-08-16T03:19:52.771Z,63.33
2022-08-16T03:22:29.714Z,63.49
2022-08-16T03:25:09.439Z,63.59
2022-08-16T03:27:39.231Z,63.66
2022-08-16T03:30:26.689Z,63.72
2022-08-16T03:32:57.393Z,63.81
2022-08-16T03:35:32.695Z,63.78
2022-08-16T03:38:35.325Z,63.88
2022-08-16T03:41:17.065Z,63.92
2022-08-16T03:43:55.814Z,63.97
2022-08-16T03:46:44.857Z,64.04
2022-08-16T03:49:13.244Z,64.10
2022-08-16T03:51:42.495Z,64.18
2022-08-16T03:54:12.556Z,64.20
2022-08-16T03:56:57.126Z,64.10
2022-08-16T03:59:30.129Z,64.15
2022-08-16T04:02:01.549Z,64.23
2022-08-16T04:04:33.603Z,64.26
2022-08-16T04:07:07.106Z,64.30
2022-08-16T04:09:38.068Z,64.37
2022-08-16T04:12:11.363Z,64.44
2022-08-16T04:14:53.417Z,64.51
2022-08-16T04:17:21.339Z,64.78
2022-08-16T04:19:51.711Z,65.01
2022-08-16T04:22:27.381Z,65.18
2022-08-16T04:24:59.371Z,65.43
2022-08-16T04:27:31.815Z,65.60
2022-08-16T04:30:03.071Z,65.79
2022-08-16T04:32:33.460Z,66.00
2022-08-16T04:35:07.780Z,66.24
2022-08-16T04:37:42.003Z,66.38
2022-08-16T04:40:29.511Z,66.50
2022-08-16T04:42:59.634Z,66.50
2022-08-16T04:45:36.341Z,66.57
2022-08-16T04:48:21.814Z,66.66
2022-08-16T04:50:59.214Z,66.77
2022-08-16T04:53:42.706Z,66.89
2022-08-16T04:56:11.405Z,67.01
2022-08-16T04:58:46.149Z,67.02
2022-08-16T05:01:15.232Z,67.08
2022-08-16T05:04:00.390Z,67.17
2022-08-16T05:06:42.461Z,67.27
2022-08-16T05:09:19.252Z,67.39
2022-08-16T05:11:50.355Z,67.56
2022-08-16T05:14:20.008Z,67.67
2022-08-16T05:17:04.613Z,67.74
2022-08-16T05:19:36.230Z,67.72
2022-08-16T05:22:18.330Z,67.72
2022-08-16T05:24:49.451Z,67.71
2022-08-16T05:27:21.858Z,67.70
2022-08-16T05:29:57.777Z,67.70
2022-08-16T05:32:32.662Z,67.72
2022-08-16T05:35:10.872Z,67.54
2022-08-16T05:37:40.243Z,67.49
2022-08-16T05:40:11.809Z,67.50
2022-08-16T05:42:40.742Z,67.40
2022-08-16T05:45:13.664Z,67.18
2022-08-16T05:47:48.922Z,66.95
2022-08-16T05:50:28.324Z,66.78
2022-08-16T05:53:02.311Z,66.33
2022-08-16T05:55:29.987Z,65.94
2022-08-16T05:57:57.186Z,65.68
2022-08-16T06:00:25.214Z,64.71
2022-08-16T06:02:53.517Z,61.06
2022-08-16T06:05:41.378Z,56.62
2022-08-16T06:08:09.287Z,53.12
2022-08-16T06:11:10.369Z,49.81
2022-08-16T06:13:41.924Z,47.05
2022-08-16T06:16:18.018Z,45.04
2022-08-16T06:18:47.420Z,42.91
2022-08-16T06:21:22.648Z,41.16
2022-08-16T06:23:54.388Z,39.42
2022-08-16T06:26:22.730Z,37.78
2022-08-16T06:28:50.158Z,36.29
2022-08-16T06:31:27.472Z,34.81
2022-08-16T06:33:55.179Z,33.80
2022-08-16T06:36:24.148Z,32.65
2022-08-16T06:39:06.030Z,31.00
2022-08-16T06:41:55.718Z,31.13
2022-08-16T06:44:40.455Z,31.58
2022-08-16T06:47:18.631Z,30.69
2022-08-16T06:49:53.960Z,29.68
2022-08-16T06:52:59.825Z,29.27
2022-08-16T06:55:14.654Z,28.39
2022-08-16T07:01:16.094Z,26.88
2022-08-16T07:03:55.847Z,26.31
2022-08-16T07:06:27.940Z,25.48
2022-08-16T07:08:58.328Z,25.88
2022-08-16T07:11:48.181Z,25.66
2022-08-16T07:14:23.868Z,25.68
2022-08-16T07:16:53.129Z,26.96
2022-08-16T07:19:20.072Z,28.16
2022-08-16T07:21:59.500Z,29.34
2022-08-16T07:24:30.122Z,29.83
2022-08-16T07:27:04.368Z,31.16
2022-08-16T07:29:40.136Z,31.82
2022-08-16T07:32:40.713Z,32.53
2022-08-16T07:38:33.846Z,33.83
2022-08-16T07:41:09.805Z,34.16
2022-08-16T07:43:40.495Z,34.52
2022-08-16T07:46:39.105Z,34.70
2022-08-16T07:49:02.441Z,35.01
2022-08-16T07:51:36.971Z,35.49
2022-08-16T07:54:09.414Z,35.89
2022-08-16T07:56:47.101Z,35.30
2022-08-16T07:59:13.951Z,33.61
2022-08-16T08:05:25.547Z,30.16
2022-08-16T08:08:11.856Z,28.76
2022-08-16T08:10:52.032Z,27.65
2022-08-16T08:13:19.199Z,26.74
2022-08-16T08:16:06.238Z,26.09
2022-08-16T08:18:33.411Z,24.78
2022-08-16T08:21:01.068Z,25.53
2022-08-16T08:23:30.629Z,24.85
2022-08-16T08:25:58.220Z,24.26
2022-08-16T08:28:26.883Z,23.38
2022-08-16T08:31:02.874Z,22.18
2022-08-16T08:33:35.138Z,23.39
2022-08-16T08:36:08.148Z,23.44
2022-08-16T08:38:44.100Z,23.06
2022-08-16T08:41:18.214Z,22.36
2022-08-16T08:43:50.206Z,21.79
2022-08-16T08:46:21.300Z,21.47
2022-08-16T08:48:59.117Z,20.97
2022-08-16T08:51:36.905Z,20.14
2022-08-16T08:54:06.545Z,19.40
2022-08-16T08:56:37.535Z,19.88
2022-08-16T08:59:20.463Z,19.98
2022-08-16T09:01:57.416Z,19.62
2022-08-16T09:04:28.327Z,18.89
2022-08-16T09:06:56.533Z,18.70
2022-08-16T09:09:33.383Z,19.76
2022-08-16T09:12:08.481Z,19.75
2022-08-16T09:15:02.364Z,19.27
2022-08-16T09:17:53.516Z,18.47
2022-08-16T09:20:27.271Z,18.42
2022-08-16T09:22:55.310Z,19.45
2022-08-16T09:25:33.964Z,18.81
2022-08-16T09:28:08.945Z,18.36
2022-08-16T09:30:44.288Z,18.28
2022-08-16T09:33:20.020Z,17.56
2022-08-16T09:35:53.292Z,17.55
2022-08-16T09:38:31.480Z,17.30
2022-08-16T09:41:02.429Z,15.89
2022-08-16T09:46:44.496Z,17.49
2022-08-16T09:49:04.568Z,18.48
2022-08-16T09:51:36.785Z,19.47
2022-08-16T09:54:06.327Z,19.81
2022-08-16T09:56:52.870Z,19.86
2022-08-16T09:59:23.408Z,19.80
2022-08-16T10:01:51.831Z,19.89
2022-08-16T10:04:31.158Z,19.80
2022-08-16T10:07:02.651Z,20.93
2022-08-16T10:09:53.917Z,21.97
2022-08-16T10:12:55.713Z,22.56
2022-08-16T10:15:25.355Z,22.77
2022-08-16T10:18:00.024Z,23.46
2022-08-16T10:20:35.565Z,23.93
2022-08-16T10:23:08.542Z,23.97
2022-08-16T10:27:16.445Z,24.48
2022-08-16T10:28:32.519Z,24.86
2022-08-16T10:31:14.435Z,24.85
2022-08-16T10:33:44.765Z,25.20
2022-08-16T10:36:38.623Z,25.47
2022-08-16T10:39:00.586Z,25.85
2022-08-16T10:41:27.738Z,26.10
2022-08-16T10:43:56.419Z,26.04
2022-08-16T10:46:40.063Z,26.08
2022-08-16T10:49:12.863Z,26.62
2022-08-16T10:52:01.277Z,26.58
2022-08-16T10:54:32.065Z,26.40
2022-08-16T10:57:04.201Z,26.21
2022-08-16T10:59:45.057Z,26.04
2022-08-16T11:02:59.268Z,25.84
2022-08-16T11:05:14.292Z,25.99
2022-08-16T11:07:52.643Z,26.22
2022-08-16T11:19:06.220Z,25.96
2022-08-16T11:24:42.599Z,25.59
2022-08-16T11:27:19.388Z,25.73
2022-08-16T11:29:49.846Z,25.94
2022-08-16T11:32:20.001Z,25.69
2022-08-16T11:35:11.240Z,25.45
2022-08-16T11:38:06.065Z,25.29
2022-08-16T11:40:32.661Z,25.37
2022-08-16T11:43:04.848Z,25.63
2022-08-16T11:45:35.151Z,25.75
2022-08-16T11:48:05.483Z,26.09
2022-08-16T11:50:34.474Z,26.30
2022-08-16T11:53:03.785Z,26.49
2022-08-16T11:55:32.225Z,26.42
2022-08-16T11:58:00.415Z,26.15
2022-08-16T12:00:33.854Z,26.29
2022-08-16T12:03:17.859Z,26.19
2022-08-16T12:05:46.746Z,26.14
2022-08-16T12:08:19.097Z,26.14
2022-08-16T12:10:46.880Z,26.23
2022-08-16T12:13:14.420Z,26.54
2022-08-16T12:15:42.672Z,26.74
2022-08-16T12:18:09.979Z,26.78
2022-08-16T12:20:42.884Z,26.82
2022-08-16T12:23:12.902Z,26.54
2022-08-16T12:25:39.942Z,26.44
2022-08-16T12:28:09.795Z,26.21
2022-08-16T12:30:42.732Z,25.66
2022-08-16T12:33:16.338Z,25.76
2022-08-16T12:35:52.501Z,26.07
2022-08-16T12:38:41.696Z,26.06
2022-08-16T12:41:08.150Z,25.89
2022-08-16T12:43:37.258Z,25.88
2022-08-16T12:46:13.198Z,25.80
2022-08-16T12:49:00.677Z,25.65
2022-08-16T12:51:59.768Z,25.94
2022-08-16T12:54:26.869Z,25.91
2022-08-16T12:56:53.688Z,25.82
2022-08-16T12:59:23.661Z,26.28
2022-08-16T13:01:55.475Z,25.86
2022-08-16T13:04:28.054Z,25.60
2022-08-16T13:09:42.217Z,25.13
2022-08-16T13:12:25.114Z,24.79
2022-08-16T13:14:53.745Z,24.87
2022-08-16T13:17:26.279Z,25.16
2022-08-16T13:20:07.754Z,25.26
2022-08-16T13:22:54.982Z,25.41
2022-08-16T13:25:25.652Z,25.52
2022-08-16T13:28:02.367Z,25.48
2022-08-16T13:30:41.715Z,25.24
2022-08-16T13:33:15.777Z,25.11
2022-08-16T13:35:55.944Z,24.84
2022-08-16T13:38:30.160Z,24.89
2022-08-16T13:41:02.313Z,24.33
2022-08-16T13:43:32.690Z,24.47
2022-08-16T13:46:04.702Z,24.44
2022-08-16T13:48:42.815Z,24.58
2022-08-16T13:51:17.053Z,24.13
2022-08-16T13:53:59.734Z,24.06
2022-08-16T13:56:37.463Z,24.12
2022-08-16T13:59:19.411Z,24.06
2022-08-16T14:01:56.710Z,23.70
2022-08-16T14:04:36.532Z,23.98
2022-08-16T14:07:08.862Z,23.89
2022-08-16T14:09:36.979Z,24.05
2022-08-16T14:12:19.379Z,24.27
2022-08-16T14:14:47.662Z,24.19
2022-08-16T14:17:14.639Z,24.20
2022-08-16T14:19:44.572Z,23.91
2022-08-16T14:22:31.140Z,23.75
2022-08-16T14:25:03.077Z,23.84
2022-08-16T14:27:30.806Z,23.79
2022-08-16T14:29:59.144Z,23.98
2022-08-16T14:32:33.561Z,24.08
2022-08-16T14:35:18.479Z,23.67
2022-08-16T14:37:45.327Z,23.69
2022-08-16T14:40:20.386Z,23.82
2022-08-16T14:42:48.248Z,23.71
2022-08-16T14:45:20.564Z,23.77
2022-08-16T14:47:49.798Z,23.58
2022-08-16T14:50:23.029Z,23.79
2022-08-16T14:52:59.528Z,23.75
2022-08-16T14:55:30.033Z,23.91
2022-08-16T14:57:58.300Z,23.90
2022-08-16T15:00:34.637Z,23.87
2022-08-16T15:03:08.638Z,23.93
2022-08-16T15:05:39.164Z,23.99
2022-08-16T15:08:06.404Z,24.16
2022-08-16T15:10:35.001Z,24.23
2022-08-16T15:13:09.624Z,24.14
2022-08-16T15:15:38.143Z,24.39
2022-08-16T15:18:06.203Z,24.57
2022-08-16T15:20:38.495Z,24.70
2022-08-16T15:23:09.074Z,24.55
2022-08-16T15:25:53.445Z,24.45
2022-08-16T15:28:31.762Z,24.83
2022-08-16T15:31:03.626Z,25.47
2022-08-16T15:33:42.139Z,25.74
2022-08-16T15:36:17.938Z,26.08
2022-08-16T15:39:03.785Z,25.44
2022-08-16T15:41:43.679Z,24.99
2022-08-16T15:44:21.424Z,24.69
2022-08-16T15:46:56.821Z,24.68
2022-08-16T15:49:37.866Z,25.09
2022-08-16T15:52:30.107Z,25.86
2022-08-16T15:55:23.825Z,26.36
2022-08-16T15:57:57.267Z,26.56
2022-08-16T16:00:26.811Z,26.58
2022-08-16T16:03:12.752Z,26.47
2022-08-16T16:05:44.819Z,26.79
2022-08-16T16:08:22.451Z,26.90
2022-08-16T16:10:54.934Z,27.10
2022-08-16T16:13:23.570Z,27.29
2022-08-16T16:15:53.814Z,27.29
2022-08-16T16:18:21.996Z,27.32
2022-08-16T16:20:54.124Z,27.43
2022-08-16T16:23:26.319Z,27.80
2022-08-16T16:25:54.879Z,27.87
2022-08-16T16:29:05.423Z,28.11
2022-08-16T16:31:16.035Z,28.15
2022-08-16T16:33:47.856Z,28.25
2022-08-16T16:36:20.841Z,28.42
2022-08-16T16:38:50.507Z,28.56
2022-08-16T16:41:22.840Z,28.58
2022-08-16T16:43:53.569Z,28.63
2022-08-16T16:46:40.637Z,28.76
2022-08-16T16:49:14.229Z,28.76
2022-08-16T16:51:47.058Z,28.90
2022-08-16T16:54:27.450Z,28.90
2022-08-16T16:56:58.150Z,29.12
2022-08-16T16:59:28.129Z,29.20
2022-08-16T17:02:01.371Z,29.24
2022-08-16T17:04:43.583Z,29.26
2022-08-16T17:07:12.266Z,29.39
2022-08-16T17:09:41.170Z,29.52
2022-08-16T17:12:17.668Z,29.61
2022-08-16T17:14:57.544Z,29.63
2022-08-16T17:17:24.643Z,29.77
2022-08-16T17:19:51.593Z,29.75
2022-08-16T17:22:21.945Z,29.78
2022-08-16T17:24:52.396Z,29.86
2022-08-16T17:27:32.597Z,30.09
2022-08-16T17:30:15.772Z,30.14
2022-08-16T17:32:54.691Z,30.10
2022-08-16T17:35:55.916Z,30.20
2022-08-16T17:38:38.546Z,30.24
2022-08-16T17:41:11.797Z,30.30
2022-08-16T17:43:44.159Z,30.32
2022-08-16T17:46:41.749Z,30.36
2022-08-16T17:49:01.164Z,30.40
2022-08-16T17:51:28.557Z,30.49
2022-08-16T17:53:55.732Z,30.49
2022-08-16T17:56:22.552Z,30.66
2022-08-16T17:58:49.404Z,30.79
2022-08-16T18:01:18.272Z,30.98
2022-08-16T18:04:07.333Z,31.03
2022-08-16T18:06:31.616Z,31.16
2022-08-16T18:09:03.782Z,31.28
2022-08-16T18:11:34.002Z,31.41
2022-08-16T18:14:00.868Z,31.47
2022-08-16T18:16:27.651Z,31.58
2022-08-16T18:18:54.282Z,31.69
2022-08-16T18:21:40.628Z,31.78
2022-08-16T18:24:09.816Z,31.92
2022-08-16T18:26:37.349Z,32.04
2022-08-16T18:29:05.541Z,32.13
2022-08-16T18:31:32.401Z,32.33
2022-08-16T18:33:59.626Z,32.53
2022-08-16T18:36:26.456Z,32.58
2022-08-16T18:38:53.861Z,32.88
2022-08-16T18:41:23.154Z,33.16
2022-08-16T18:44:22.510Z,33.26
2022-08-16T18:46:40.304Z,33.46
2022-08-16T18:49:07.764Z,33.69
2022-08-16T18:51:35.773Z,33.85
2022-08-16T18:54:02.649Z,33.99
2022-08-16T18:56:55.743Z,34.14
2022-08-16T18:59:16.742Z,34.23
2022-08-16T19:01:44.030Z,34.51
2022-08-16T19:04:55.475Z,34.67
2022-08-16T19:06:57.383Z,34.95
2022-08-16T19:09:24.120Z,35.08
2022-08-16T19:11:50.815Z,34.84
2022-08-16T19:14:18.251Z,34.87
2022-08-16T19:16:44.916Z,34.98
2022-08-16T19:19:11.548Z,35.05
2022-08-16T19:21:39.500Z,35.20
2022-08-16T19:24:06.276Z,35.55
2022-08-16T19:26:45.495Z,35.80
2022-08-16T19:29:12.391Z,35.85
2022-08-16T19:31:40.367Z,35.96
2022-08-16T19:34:08.273Z,36.02
2022-08-16T19:36:39.553Z,36.18
2022-08-16T19:39:12.074Z,36.19
2022-08-16T19:41:53.396Z,36.39
2022-08-16T19:44:22.701Z,36.51
2022-08-16T19:46:50.585Z,36.63
2022-08-16T19:49:17.787Z,36.63
2022-08-16T19:51:49.131Z,36.73
2022-08-16T19:54:16.373Z,36.99
2022-08-16T19:56:43.159Z,37.21
2022-08-16T19:59:39.084Z,37.31
2022-08-16T20:01:57.611Z,37.20
2022-08-16T20:04:25.164Z,37.20
2022-08-16T20:06:53.363Z,37.25
2022-08-16T20:09:22.573Z,37.35
2022-08-16T20:11:52.212Z,37.39
2022-08-16T20:14:25.370Z,37.45
2022-08-16T20:16:56.523Z,37.58
2022-08-16T20:19:24.614Z,37.88
2022-08-16T20:21:51.401Z,37.95
2022-08-16T20:24:35.660Z,37.92
2022-08-16T20:27:07.276Z,38.04
2022-08-16T20:29:35.832Z,38.14
2022-08-16T20:32:07.419Z,38.38
2022-08-16T20:34:35.344Z,38.56
2022-08-16T20:37:02.050Z,38.66
2022-08-16T20:39:28.934Z,38.75
2022-08-16T20:41:55.604Z,38.80
2022-08-16T20:44:22.686Z,38.99
2022-08-16T20:46:51.791Z,39.29
2022-08-16T20:49:18.483Z,39.47
2022-08-16T20:51:50.789Z,39.58
2022-08-16T20:54:20.914Z,39.68
2022-08-16T20:56:48.150Z,39.87
2022-08-16T20:59:15.274Z,39.96
2022-08-16T21:01:46.244Z,40.09
2022-08-16T21:04:23.154Z,40.16
2022-08-16T21:06:54.129Z,40.25
2022-08-16T21:09:25.757Z,40.31
2022-08-16T21:11:56.000Z,40.47
2022-08-16T21:14:23.844Z,40.61
2022-08-16T21:16:51.342Z,40.65
2022-08-16T21:19:18.557Z,40.70
2022-08-16T21:21:45.267Z,40.85
2022-08-16T21:24:12.538Z,40.94
2022-08-16T21:26:39.326Z,41.21
2022-08-16T21:29:06.654Z,41.39
2022-08-16T21:31:40.361Z,41.60
2022-08-16T21:34:08.179Z,41.70
2022-08-16T21:36:36.627Z,41.86
2022-08-16T21:39:06.793Z,41.90
2022-08-16T21:41:35.385Z,42.00
2022-08-16T21:44:02.252Z,42.23
2022-08-16T21:46:28.993Z,42.34
2022-08-16T21:48:55.671Z,42.81
2022-08-16T21:51:22.488Z,43.09
2022-08-16T21:53:49.186Z,43.24
2022-08-16T21:56:17.304Z,43.29
2022-08-16T21:58:46.013Z,43.38
2022-08-16T22:01:13.699Z,43.49
2022-08-16T22:03:40.570Z,43.59
2022-08-16T22:06:12.987Z,43.63
2022-08-16T22:08:51.069Z,43.68
2022-08-16T22:11:21.969Z,43.67
2022-08-16T22:13:57.179Z,43.65
2022-08-16T22:16:33.955Z,43.95
2022-08-16T22:19:02.617Z,44.00
2022-08-16T22:21:30.602Z,43.79
2022-08-16T22:23:58.995Z,43.82
2022-08-16T22:26:30.193Z,43.69
2022-08-16T22:29:00.821Z,43.73
2022-08-16T22:31:27.913Z,43.79
2022-08-16T22:33:55.990Z,43.77
2022-08-16T22:36:22.707Z,43.81
2022-08-16T22:38:56.210Z,43.99
2022-08-16T22:41:24.744Z,44.00
2022-08-16T22:43:52.186Z,44.01
2022-08-16T22:46:19.516Z,44.00
2022-08-16T22:48:50.040Z,44.08
2022-08-16T22:51:21.990Z,44.23
2022-08-16T22:53:49.132Z,44.32
2022-08-16T22:56:17.420Z,44.53
2022-08-16T22:58:46.024Z,44.63
2022-08-16T23:01:14.697Z,44.67
2022-08-16T23:03:41.634Z,44.65
2022-08-16T23:06:10.461Z,44.76
2022-08-16T23:08:40.855Z,45.07
2022-08-16T23:11:18.420Z,45.21
2022-08-16T23:13:50.700Z,45.50
2022-08-16T23:16:32.704Z,45.63
2022-08-16T23:19:08.721Z,45.77
2022-08-16T23:21:37.667Z,45.89
2022-08-16T23:24:06.178Z,46.04
2022-08-16T23:26:44.140Z,46.14
2022-08-16T23:29:24.667Z,46.23
2022-08-16T23:32:11.374Z,46.27
2022-08-16T23:34:38.430Z,46.31
2022-08-16T23:37:06.636Z,46.38
2022-08-16T23:39:35.903Z,46.56
2022-08-16T23:42:14.464Z,46.69
2022-08-16T23:44:57.362Z,46.79
2022-08-16T23:47:25.944Z,46.93
2022-08-16T23:49:59.914Z,47.04
2022-08-16T23:52:53.119Z,47.22
2022-08-16T23:55:16.947Z,47.41
2022-08-16T23:57:44.922Z,47.59
